sensor_id;sensor_type;location;lat;lon;timestamp;pressure;altitude;pressure_sealevel;temperature;humidity
69980;BME280;57318;56.232;43.944;2022-09-30T00:01:31;99381.97;;;7.91;89.50
69980;BME280;57318;56.232;43.944;2022-09-30T00:03:58;99384.81;;;7.88;89.51
69980;BME280;57318;56.232;43.944;2022-09-30T00:06:25;99387.16;;;7.92;89.38
69980;BME280;57318;56.232;43.944;2022-09-30T00:08:51;99383.75;;;7.90;89.61
69980;BME280;57318;56.232;43.944;2022-09-30T00:11:29;99380.88;;;7.93;89.53
69980;BME280;57318;56.232;43.944;2022-09-30T00:13:56;99384.41;;;7.94;89.50
69980;BME280;57318;56.232;43.944;2022-09-30T00:16:23;99379.00;;;7.95;89.44
69980;BME280;57318;56.232;43.944;2022-09-30T00:18:50;99387.47;;;8.01;89.41
69980;BME280;57318;56.232;43.944;2022-09-30T00:21:19;99389.38;;;7.99;89.44
69980;BME280;57318;56.232;43.944;2022-09-30T00:23:44;99390.09;;;8.01;89.36
69980;BME280;57318;56.232;43.944;2022-09-30T00:26:13;99392.97;;;7.98;89.41
69980;BME280;57318;56.232;43.944;2022-09-30T00:28:40;99386.72;;;7.99;89.29
69980;BME280;57318;56.232;43.944;2022-09-30T00:31:07;99392.97;;;7.98;89.54
69980;BME280;57318;56.232;43.944;2022-09-30T00:33:34;99398.47;;;7.94;89.81
69980;BME280;57318;56.232;43.944;2022-09-30T00:36:00;99397.41;;;7.97;89.42
69980;BME280;57318;56.232;43.944;2022-09-30T00:38:26;99399.19;;;7.97;89.71
69980;BME280;57318;56.232;43.944;2022-09-30T00:40:53;99401.84;;;7.97;89.79
69980;BME280;57318;56.232;43.944;2022-09-30T00:43:44;99399.75;;;8.02;89.75
69980;BME280;57318;56.232;43.944;2022-09-30T00:46:20;99397.63;;;8.07;89.54
69980;BME280;57318;56.232;43.944;2022-09-30T00:48:51;99415.16;;;8.08;89.33
69980;BME280;57318;56.232;43.944;2022-09-30T00:51:41;99405.34;;;8.10;89.24
69980;BME280;57318;56.232;43.944;2022-09-30T00:54:14;99403.75;;;8.07;89.11
69980;BME280;57318;56.232;43.944;2022-09-30T00:56:51;99404.16;;;8.01;89.31
69980;BME280;57318;56.232;43.944;2022-09-30T00:59:28;99404.28;;;8.00;89.22
69980;BME280;57318;56.232;43.944;2022-09-30T01:01:56;99411.81;;;7.93;89.51
69980;BME280;57318;56.232;43.944;2022-09-30T01:04:23;99410.53;;;7.86;89.82
69980;BME280;57318;56.232;43.944;2022-09-30T01:06:50;99401.75;;;7.85;89.72
69980;BME280;57318;56.232;43.944;2022-09-30T01:09:16;99408.09;;;7.83;89.76
69980;BME280;57318;56.232;43.944;2022-09-30T01:11:42;99409.91;;;7.82;89.85
69980;BME280;57318;56.232;43.944;2022-09-30T01:14:15;99413.28;;;7.84;89.83
69980;BME280;57318;56.232;43.944;2022-09-30T01:16:49;99412.34;;;7.85;90.05
69980;BME280;57318;56.232;43.944;2022-09-30T01:27:58;99421.41;;;7.81;90.12
69980;BME280;57318;56.232;43.944;2022-09-30T01:31:02;99429.34;;;7.81;89.99
69980;BME280;57318;56.232;43.944;2022-09-30T01:36:06;99431.38;;;7.77;90.14
69980;BME280;57318;56.232;43.944;2022-09-30T01:44:00;99430.00;;;7.72;90.23
69980;BME280;57318;56.232;43.944;2022-09-30T01:46:35;99431.16;;;7.68;90.36
69980;BME280;57318;56.232;43.944;2022-09-30T01:49:15;99431.38;;;7.65;90.28
69980;BME280;57318;56.232;43.944;2022-09-30T01:57:02;99422.81;;;7.48;90.43
69980;BME280;57318;56.232;43.944;2022-09-30T02:02:03;99425.66;;;7.45;90.96
69980;BME280;57318;56.232;43.944;2022-09-30T02:04:35;99427.22;;;7.48;90.99
69980;BME280;57318;56.232;43.944;2022-09-30T02:07:09;99434.31;;;7.47;90.85
69980;BME280;57318;56.232;43.944;2022-09-30T02:09:49;99439.19;;;7.40;90.62
69980;BME280;57318;56.232;43.944;2022-09-30T02:12:19;99428.69;;;7.39;90.54
69980;BME280;57318;56.232;43.944;2022-09-30T02:15:00;99432.06;;;7.28;90.85
69980;BME280;57318;56.232;43.944;2022-09-30T02:17:40;99440.72;;;7.30;90.77
69980;BME280;57318;56.232;43.944;2022-09-30T02:20:23;99443.78;;;7.24;90.98
69980;BME280;57318;56.232;43.944;2022-09-30T02:23:26;99449.34;;;7.19;90.92
69980;BME280;57318;56.232;43.944;2022-09-30T02:26:05;99455.50;;;7.20;90.96
69980;BME280;57318;56.232;43.944;2022-09-30T02:28:43;99457.28;;;7.19;91.00
69980;BME280;57318;56.232;43.944;2022-09-30T02:31:11;99464.06;;;7.23;90.97
69980;BME280;57318;56.232;43.944;2022-09-30T02:34:03;99463.69;;;7.30;90.81
69980;BME280;57318;56.232;43.944;2022-09-30T02:39:06;99465.72;;;7.39;90.71
69980;BME280;57318;56.232;43.944;2022-09-30T02:41:40;99468.34;;;7.39;90.39
69980;BME280;57318;56.232;43.944;2022-09-30T02:44:09;99465.72;;;7.39;90.37
69980;BME280;57318;56.232;43.944;2022-09-30T02:46:43;99472.88;;;7.37;90.52
69980;BME280;57318;56.232;43.944;2022-09-30T02:52:12;99464.50;;;7.30;90.68
69980;BME280;57318;56.232;43.944;2022-09-30T03:00:19;99449.53;;;7.03;91.13
69980;BME280;57318;56.232;43.944;2022-09-30T03:02:44;99456.25;;;6.95;91.75
69980;BME280;57318;56.232;43.944;2022-09-30T03:05:10;99455.69;;;6.90;92.37
69980;BME280;57318;56.232;43.944;2022-09-30T03:07:36;99468.91;;;6.90;92.37
69980;BME280;57318;56.232;43.944;2022-09-30T03:10:12;99465.53;;;6.88;92.27
69980;BME280;57318;56.232;43.944;2022-09-30T03:15:36;99459.31;;;6.89;91.88
69980;BME280;57318;56.232;43.944;2022-09-30T03:18:12;99457.59;;;6.88;91.71
69980;BME280;57318;56.232;43.944;2022-09-30T03:26:36;99459.13;;;6.77;92.38
69980;BME280;57318;56.232;43.944;2022-09-30T03:29:25;99461.75;;;6.77;92.27
69980;BME280;57318;56.232;43.944;2022-09-30T03:32:24;99457.44;;;6.76;91.96
69980;BME280;57318;56.232;43.944;2022-09-30T03:40:16;99460.41;;;6.57;90.51
69980;BME280;57318;56.232;43.944;2022-09-30T03:43:08;99465.78;;;6.41;90.13
69980;BME280;57318;56.232;43.944;2022-09-30T03:45:43;99462.97;;;6.30;90.03
69980;BME280;57318;56.232;43.944;2022-09-30T03:48:12;99465.06;;;6.25;90.19
69980;BME280;57318;56.232;43.944;2022-09-30T03:50:40;99471.84;;;6.29;90.38
69980;BME280;57318;56.232;43.944;2022-09-30T03:53:10;99476.06;;;6.31;90.05
69980;BME280;57318;56.232;43.944;2022-09-30T03:55:49;99474.94;;;6.36;89.83
69980;BME280;57318;56.232;43.944;2022-09-30T03:58:16;99479.16;;;6.38;89.90
69980;BME280;57318;56.232;43.944;2022-09-30T04:00:51;99477.75;;;6.47;89.41
69980;BME280;57318;56.232;43.944;2022-09-30T04:03:18;99467.84;;;6.50;89.32
69980;BME280;57318;56.232;43.944;2022-09-30T04:05:45;99480.38;;;6.61;89.22
69980;BME280;57318;56.232;43.944;2022-09-30T04:08:11;99479.81;;;6.71;88.67
69980;BME280;57318;56.232;43.944;2022-09-30T04:10:40;99478.00;;;6.85;88.46
69980;BME280;57318;56.232;43.944;2022-09-30T04:13:09;99477.59;;;6.92;87.53
69980;BME280;57318;56.232;43.944;2022-09-30T04:15:35;99480.25;;;6.92;87.30
69980;BME280;57318;56.232;43.944;2022-09-30T04:18:04;99478.78;;;7.00;87.08
69980;BME280;57318;56.232;43.944;2022-09-30T04:20:31;99482.34;;;6.99;86.83
69980;BME280;57318;56.232;43.944;2022-09-30T04:22:57;99486.63;;;7.02;87.18
69980;BME280;57318;56.232;43.944;2022-09-30T04:25:24;99488.16;;;7.19;86.99
69980;BME280;57318;56.232;43.944;2022-09-30T04:27:49;99492.94;;;7.27;86.83
69980;BME280;57318;56.232;43.944;2022-09-30T04:30:15;99487.66;;;7.27;86.76
69980;BME280;57318;56.232;43.944;2022-09-30T04:32:42;99479.47;;;7.44;86.53
69980;BME280;57318;56.232;43.944;2022-09-30T04:35:12;99481.19;;;7.58;86.02
69980;BME280;57318;56.232;43.944;2022-09-30T04:37:42;99478.66;;;7.69;85.37
69980;BME280;57318;56.232;43.944;2022-09-30T04:40:09;99489.66;;;7.76;84.78
69980;BME280;57318;56.232;43.944;2022-09-30T04:42:37;99495.50;;;7.81;84.68
69980;BME280;57318;56.232;43.944;2022-09-30T04:45:04;99504.09;;;7.85;84.73
69980;BME280;57318;56.232;43.944;2022-09-30T04:47:30;99499.84;;;7.95;84.62
69980;BME280;57318;56.232;43.944;2022-09-30T04:49:55;99498.38;;;8.04;84.77
69980;BME280;57318;56.232;43.944;2022-09-30T04:52:22;99514.03;;;7.94;85.93
69980;BME280;57318;56.232;43.944;2022-09-30T04:54:48;99514.25;;;8.04;86.20
69980;BME280;57318;56.232;43.944;2022-09-30T04:57:13;99506.53;;;8.13;86.38
69980;BME280;57318;56.232;43.944;2022-09-30T04:59:39;99520.19;;;8.20;86.69
69980;BME280;57318;56.232;43.944;2022-09-30T05:02:05;99512.13;;;8.22;86.60
69980;BME280;57318;56.232;43.944;2022-09-30T05:04:31;99523.25;;;8.14;87.28
69980;BME280;57318;56.232;43.944;2022-09-30T05:07:00;99521.25;;;8.18;87.18
69980;BME280;57318;56.232;43.944;2022-09-30T05:09:28;99528.44;;;8.16;87.44
69980;BME280;57318;56.232;43.944;2022-09-30T05:11:53;99522.94;;;8.06;87.86
69980;BME280;57318;56.232;43.944;2022-09-30T05:14:19;99529.31;;;8.03;87.90
69980;BME280;57318;56.232;43.944;2022-09-30T05:16:46;99532.06;;;8.02;88.05
69980;BME280;57318;56.232;43.944;2022-09-30T05:19:12;99537.56;;;7.99;88.58
69980;BME280;57318;56.232;43.944;2022-09-30T05:21:38;99535.44;;;8.04;88.49
69980;BME280;57318;56.232;43.944;2022-09-30T05:24:03;99541.34;;;8.07;88.52
69980;BME280;57318;56.232;43.944;2022-09-30T05:26:29;99544.63;;;8.11;88.65
69980;BME280;57318;56.232;43.944;2022-09-30T05:28:54;99554.81;;;8.17;88.46
69980;BME280;57318;56.232;43.944;2022-09-30T05:31:20;99553.66;;;8.21;88.32
69980;BME280;57318;56.232;43.944;2022-09-30T05:33:46;99540.84;;;8.28;88.06
69980;BME280;57318;56.232;43.944;2022-09-30T05:36:14;99553.66;;;8.34;87.89
69980;BME280;57318;56.232;43.944;2022-09-30T05:38:40;99555.88;;;8.40;87.75
69980;BME280;57318;56.232;43.944;2022-09-30T05:41:08;99561.63;;;8.47;87.53
69980;BME280;57318;56.232;43.944;2022-09-30T05:43:40;99553.03;;;8.56;87.28
69980;BME280;57318;56.232;43.944;2022-09-30T05:46:06;99561.28;;;8.64;86.76
69980;BME280;57318;56.232;43.944;2022-09-30T05:48:32;99558.19;;;8.71;86.51
69980;BME280;57318;56.232;43.944;2022-09-30T05:50:58;99558.75;;;8.76;86.18
69980;BME280;57318;56.232;43.944;2022-09-30T05:53:27;99560.84;;;8.71;86.48
69980;BME280;57318;56.232;43.944;2022-09-30T05:55:52;99569.47;;;8.74;86.54
69980;BME280;57318;56.232;43.944;2022-09-30T05:58:19;99570.28;;;8.75;86.61
69980;BME280;57318;56.232;43.944;2022-09-30T06:00:46;99576.31;;;8.77;86.56
69980;BME280;57318;56.232;43.944;2022-09-30T06:03:12;99572.09;;;8.74;86.68
69980;BME280;57318;56.232;43.944;2022-09-30T06:05:38;99583.94;;;8.81;86.52
69980;BME280;57318;56.232;43.944;2022-09-30T06:08:04;99580.34;;;8.82;86.47
69980;BME280;57318;56.232;43.944;2022-09-30T06:10:32;99582.34;;;8.92;86.15
69980;BME280;57318;56.232;43.944;2022-09-30T06:12:59;99583.41;;;8.89;86.31
69980;BME280;57318;56.232;43.944;2022-09-30T06:15:25;99588.56;;;9.03;86.02
69980;BME280;57318;56.232;43.944;2022-09-30T06:17:52;99587.31;;;9.09;85.86
69980;BME280;57318;56.232;43.944;2022-09-30T06:20:18;99591.53;;;9.12;85.50
69980;BME280;57318;56.232;43.944;2022-09-30T06:22:43;99591.66;;;9.10;85.34
69980;BME280;57318;56.232;43.944;2022-09-30T06:25:12;99586.97;;;9.14;85.23
69980;BME280;57318;56.232;43.944;2022-09-30T06:27:42;99587.19;;;9.11;85.41
69980;BME280;57318;56.232;43.944;2022-09-30T06:30:08;99575.38;;;9.15;85.63
69980;BME280;57318;56.232;43.944;2022-09-30T06:32:34;99580.25;;;9.21;85.44
69980;BME280;57318;56.232;43.944;2022-09-30T06:35:00;99581.41;;;9.30;85.13
69980;BME280;57318;56.232;43.944;2022-09-30T06:37:29;99577.19;;;9.51;84.46
69980;BME280;57318;56.232;43.944;2022-09-30T06:40:14;99578.59;;;9.68;83.99
69980;BME280;57318;56.232;43.944;2022-09-30T06:42:39;99586.84;;;9.77;83.45
69980;BME280;57318;56.232;43.944;2022-09-30T06:45:06;99586.53;;;9.92;83.08
69980;BME280;57318;56.232;43.944;2022-09-30T06:47:32;99587.16;;;10.07;82.57
69980;BME280;57318;56.232;43.944;2022-09-30T06:49:58;99596.38;;;10.15;82.29
69980;BME280;57318;56.232;43.944;2022-09-30T06:52:25;99595.44;;;10.27;81.68
69980;BME280;57318;56.232;43.944;2022-09-30T06:54:51;99597.09;;;10.41;81.21
69980;BME280;57318;56.232;43.944;2022-09-30T06:57:22;99605.44;;;10.59;80.76
69980;BME280;57318;56.232;43.944;2022-09-30T06:59:55;99601.81;;;10.71;80.13
69980;BME280;57318;56.232;43.944;2022-09-30T07:02:21;99600.34;;;11.35;77.67
69980;BME280;57318;56.232;43.944;2022-09-30T07:04:46;99602.97;;;11.46;76.94
69980;BME280;57318;56.232;43.944;2022-09-30T07:07:12;99606.81;;;11.53;76.47
69980;BME280;57318;56.232;43.944;2022-09-30T07:09:38;99612.50;;;11.60;75.88
69980;BME280;57318;56.232;43.944;2022-09-30T07:12:04;99607.88;;;11.62;75.99
69980;BME280;57318;56.232;43.944;2022-09-30T07:14:41;99606.03;;;11.74;76.22
69980;BME280;57318;56.232;43.944;2022-09-30T07:17:17;99603.16;;;11.66;76.16
69980;BME280;57318;56.232;43.944;2022-09-30T07:19:43;99605.38;;;11.49;76.74
69980;BME280;57318;56.232;43.944;2022-09-30T07:22:09;99597.16;;;11.52;76.86
69980;BME280;57318;56.232;43.944;2022-09-30T07:24:55;99596.78;;;11.57;77.32
69980;BME280;57318;56.232;43.944;2022-09-30T07:27:22;99600.94;;;11.82;77.04
69980;BME280;57318;56.232;43.944;2022-09-30T07:29:51;99603.84;;;12.12;75.24
69980;BME280;57318;56.232;43.944;2022-09-30T07:32:17;99598.03;;;12.39;74.61
69980;BME280;57318;56.232;43.944;2022-09-30T07:34:47;99593.44;;;12.72;73.73
69980;BME280;57318;56.232;43.944;2022-09-30T07:37:15;99597.75;;;13.34;71.20
69980;BME280;57318;56.232;43.944;2022-09-30T07:39:43;99597.59;;;13.36;70.79
69980;BME280;57318;56.232;43.944;2022-09-30T07:42:10;99595.13;;;13.64;69.88
69980;BME280;57318;56.232;43.944;2022-09-30T07:44:40;99589.38;;;14.17;68.10
69980;BME280;57318;56.232;43.944;2022-09-30T07:47:10;99597.84;;;15.17;65.27
69980;BME280;57318;56.232;43.944;2022-09-30T07:49:37;99591.69;;;16.95;59.91
69980;BME280;57318;56.232;43.944;2022-09-30T07:52:02;99600.16;;;17.76;56.25
69980;BME280;57318;56.232;43.944;2022-09-30T07:54:31;99591.84;;;17.36;57.37
69980;BME280;57318;56.232;43.944;2022-09-30T07:56:58;99591.56;;;16.78;58.46
69980;BME280;57318;56.232;43.944;2022-09-30T07:59:24;99600.91;;;17.35;57.84
69980;BME280;57318;56.232;43.944;2022-09-30T08:01:52;99605.22;;;18.61;53.46
69980;BME280;57318;56.232;43.944;2022-09-30T08:04:19;99608.19;;;19.07;51.99
69980;BME280;57318;56.232;43.944;2022-09-30T08:06:48;99602.09;;;19.14;51.37
69980;BME280;57318;56.232;43.944;2022-09-30T08:09:16;99602.50;;;19.42;51.45
69980;BME280;57318;56.232;43.944;2022-09-30T08:11:43;99612.03;;;19.76;50.16
69980;BME280;57318;56.232;43.944;2022-09-30T08:14:18;99610.81;;;20.33;47.97
69980;BME280;57318;56.232;43.944;2022-09-30T08:16:44;99614.53;;;20.09;48.45
69980;BME280;57318;56.232;43.944;2022-09-30T08:19:15;99611.97;;;20.77;46.78
69980;BME280;57318;56.232;43.944;2022-09-30T08:21:42;99609.28;;;20.53;47.58
69980;BME280;57318;56.232;43.944;2022-09-30T08:24:09;99616.47;;;21.66;45.24
69980;BME280;57318;56.232;43.944;2022-09-30T08:26:34;99627.28;;;19.69;49.23
69980;BME280;57318;56.232;43.944;2022-09-30T08:29:00;99603.44;;;18.20;53.39
69980;BME280;57318;56.232;43.944;2022-09-30T08:31:26;99610.91;;;18.83;51.83
69980;BME280;57318;56.232;43.944;2022-09-30T08:33:52;99606.84;;;19.11;51.14
69980;BME280;57318;56.232;43.944;2022-09-30T08:36:22;99610.03;;;20.47;47.89
69980;BME280;57318;56.232;43.944;2022-09-30T08:38:49;99610.75;;;21.24;46.05
69980;BME280;57318;56.232;43.944;2022-09-30T08:44:15;99608.97;;;21.01;45.99
69980;BME280;57318;56.232;43.944;2022-09-30T08:49:23;99609.63;;;18.37;52.30
69980;BME280;57318;56.232;43.944;2022-09-30T08:51:51;99612.22;;;17.04;56.63
69980;BME280;57318;56.232;43.944;2022-09-30T08:54:23;99607.50;;;17.06;57.30
69980;BME280;57318;56.232;43.944;2022-09-30T08:56:51;99611.78;;;16.38;59.36
69980;BME280;57318;56.232;43.944;2022-09-30T08:59:36;99619.66;;;16.40;59.64
69980;BME280;57318;56.232;43.944;2022-09-30T09:02:14;99621.94;;;15.63;62.12
69980;BME280;57318;56.232;43.944;2022-09-30T09:04:42;99622.78;;;15.63;62.19
69980;BME280;57318;56.232;43.944;2022-09-30T09:07:52;99617.34;;;16.98;59.12
69980;BME280;57318;56.232;43.944;2022-09-30T09:10:45;99622.13;;;16.59;59.79
69980;BME280;57318;56.232;43.944;2022-09-30T09:16:25;99612.03;;;14.90;65.33
69980;BME280;57318;56.232;43.944;2022-09-30T09:19:10;99613.34;;;14.76;66.18
69980;BME280;57318;56.232;43.944;2022-09-30T09:21:56;99613.94;;;14.50;66.96
69980;BME280;57318;56.232;43.944;2022-09-30T09:24:29;99612.88;;;14.04;68.86
69980;BME280;57318;56.232;43.944;2022-09-30T09:32:00;99615.25;;;13.27;72.05
69980;BME280;57318;56.232;43.944;2022-09-30T09:34:30;99615.75;;;13.02;73.07
69980;BME280;57318;56.232;43.944;2022-09-30T09:37:03;99614.00;;;12.91;74.04
69980;BME280;57318;56.232;43.944;2022-09-30T09:44:40;99620.50;;;13.08;73.61
69980;BME280;57318;56.232;43.944;2022-09-30T09:47:11;99624.44;;;13.04;73.60
69980;BME280;57318;56.232;43.944;2022-09-30T09:50:01;99617.69;;;12.99;74.02
69980;BME280;57318;56.232;43.944;2022-09-30T09:54:58;99603.28;;;13.12;74.05
69980;BME280;57318;56.232;43.944;2022-09-30T09:57:26;99612.16;;;13.22;73.59
69980;BME280;57318;56.232;43.944;2022-09-30T10:00:27;99616.22;;;13.77;71.51
69980;BME280;57318;56.232;43.944;2022-09-30T10:03:19;99617.94;;;14.17;69.74
69980;BME280;57318;56.232;43.944;2022-09-30T10:08:25;99623.50;;;15.10;65.61
69980;BME280;57318;56.232;43.944;2022-09-30T10:10:53;99610.16;;;15.00;65.53
69980;BME280;57318;56.232;43.944;2022-09-30T10:13:22;99614.63;;;15.37;64.43
69980;BME280;57318;56.232;43.944;2022-09-30T10:15:51;99624.72;;;15.71;63.33
69980;BME280;57318;56.232;43.944;2022-09-30T10:18:22;99612.44;;;15.23;64.96
69980;BME280;57318;56.232;43.944;2022-09-30T10:21:00;99616.44;;;15.09;65.17
69980;BME280;57318;56.232;43.944;2022-09-30T10:23:30;99621.97;;;16.61;60.79
69980;BME280;57318;56.232;43.944;2022-09-30T10:25:59;99627.25;;;16.97;59.01
69980;BME280;57318;56.232;43.944;2022-09-30T10:28:28;99621.56;;;18.51;54.18
69980;BME280;57318;56.232;43.944;2022-09-30T10:30:58;99636.13;;;19.46;51.36
69980;BME280;57318;56.232;43.944;2022-09-30T10:33:28;99632.47;;;19.39;51.00
69980;BME280;57318;56.232;43.944;2022-09-30T10:36:19;99632.44;;;19.47;50.70
69980;BME280;57318;56.232;43.944;2022-09-30T10:41:51;99635.06;;;20.56;48.01
69980;BME280;57318;56.232;43.944;2022-09-30T10:44:26;99638.22;;;20.98;46.85
69980;BME280;57318;56.232;43.944;2022-09-30T10:46:58;99630.16;;;22.01;44.95
69980;BME280;57318;56.232;43.944;2022-09-30T10:49:38;99641.88;;;22.29;43.54
69980;BME280;57318;56.232;43.944;2022-09-30T10:52:17;99626.91;;;21.69;44.83
69980;BME280;57318;56.232;43.944;2022-09-30T10:54:52;99629.38;;;20.51;47.47
69980;BME280;57318;56.232;43.944;2022-09-30T10:57:27;99625.66;;;19.20;51.63
69980;BME280;57318;56.232;43.944;2022-09-30T11:00:00;99629.81;;;18.42;53.75
69980;BME280;57318;56.232;43.944;2022-09-30T11:05:13;99617.69;;;16.94;58.53
69980;BME280;57318;56.232;43.944;2022-09-30T11:07:49;99612.78;;;16.64;59.61
69980;BME280;57318;56.232;43.944;2022-09-30T11:13:36;99621.97;;;16.61;60.53
69980;BME280;57318;56.232;43.944;2022-09-30T11:18:40;99609.78;;;16.40;61.63
69980;BME280;57318;56.232;43.944;2022-09-30T11:21:17;99604.25;;;16.42;61.46
69980;BME280;57318;56.232;43.944;2022-09-30T11:32:01;99615.09;;;16.32;61.42
69980;BME280;57318;56.232;43.944;2022-09-30T11:37:17;99610.19;;;16.10;62.85
69980;BME280;57318;56.232;43.944;2022-09-30T11:42:44;99607.88;;;16.33;61.98
69980;BME280;57318;56.232;43.944;2022-09-30T11:53:41;99600.41;;;17.40;59.52
69980;BME280;57318;56.232;43.944;2022-09-30T11:59:02;99615.56;;;17.06;60.29
69980;BME280;57318;56.232;43.944;2022-09-30T12:01:41;99600.91;;;16.92;60.61
69980;BME280;57318;56.232;43.944;2022-09-30T12:04:20;99606.56;;;16.63;61.25
69980;BME280;57318;56.232;43.944;2022-09-30T12:06:53;99594.31;;;16.34;61.97
69980;BME280;57318;56.232;43.944;2022-09-30T12:09:29;99589.88;;;16.25;62.11
69980;BME280;57318;56.232;43.944;2022-09-30T12:12:04;99593.03;;;16.20;62.11
69980;BME280;57318;56.232;43.944;2022-09-30T12:14:47;99599.97;;;16.05;62.53
69980;BME280;57318;56.232;43.944;2022-09-30T12:17:46;99597.72;;;16.18;62.51
69980;BME280;57318;56.232;43.944;2022-09-30T12:23:04;99604.53;;;15.95;63.31
69980;BME280;57318;56.232;43.944;2022-09-30T12:25:40;99592.88;;;15.68;64.49
69980;BME280;57318;56.232;43.944;2022-09-30T12:28:36;99587.13;;;15.63;65.02
69980;BME280;57318;56.232;43.944;2022-09-30T12:39:34;99588.25;;;15.14;66.78
69980;BME280;57318;56.232;43.944;2022-09-30T12:48:18;99583.81;;;14.68;68.61
69980;BME280;57318;56.232;43.944;2022-09-30T12:50:51;99582.69;;;14.51;69.38
69980;BME280;57318;56.232;43.944;2022-09-30T12:53:48;99579.63;;;14.46;69.90
69980;BME280;57318;56.232;43.944;2022-09-30T12:56:13;99573.88;;;14.40;69.77
69980;BME280;57318;56.232;43.944;2022-09-30T12:58:50;99580.47;;;14.36;70.12
69980;BME280;57318;56.232;43.944;2022-09-30T13:01:36;99585.56;;;14.30;70.70
69980;BME280;57318;56.232;43.944;2022-09-30T13:12:16;99589.09;;;14.11;71.81
69980;BME280;57318;56.232;43.944;2022-09-30T13:17:53;99602.31;;;13.93;72.42
69980;BME280;57318;56.232;43.944;2022-09-30T13:23:41;99604.16;;;13.82;73.33
69980;BME280;57318;56.232;43.944;2022-09-30T13:26:36;99608.94;;;13.79;73.42
69980;BME280;57318;56.232;43.944;2022-09-30T13:34:28;99603.41;;;13.61;74.05
69980;BME280;57318;56.232;43.944;2022-09-30T13:37:04;99610.88;;;13.57;74.32
69980;BME280;57318;56.232;43.944;2022-09-30T13:42:21;99613.66;;;13.46;75.23
69980;BME280;57318;56.232;43.944;2022-09-30T13:47:32;99614.47;;;13.37;75.72
69980;BME280;57318;56.232;43.944;2022-09-30T13:52:48;99613.69;;;13.25;76.43
69980;BME280;57318;56.232;43.944;2022-09-30T13:55:21;99614.09;;;13.20;76.78
69980;BME280;57318;56.232;43.944;2022-09-30T13:58:23;99618.88;;;13.16;77.07
69980;BME280;57318;56.232;43.944;2022-09-30T14:01:04;99615.66;;;13.13;77.20
69980;BME280;57318;56.232;43.944;2022-09-30T14:06:45;99626.25;;;13.03;78.12
69980;BME280;57318;56.232;43.944;2022-09-30T14:15:02;99628.19;;;12.91;78.89
69980;BME280;57318;56.232;43.944;2022-09-30T14:20:33;99631.63;;;12.82;79.59
69980;BME280;57318;56.232;43.944;2022-09-30T14:23:16;99627.53;;;12.78;79.86
69980;BME280;57318;56.232;43.944;2022-09-30T14:29:15;99637.06;;;12.71;80.45
69980;BME280;57318;56.232;43.944;2022-09-30T14:31:49;99631.59;;;12.72;80.36
69980;BME280;57318;56.232;43.944;2022-09-30T14:34:18;99632.69;;;12.70;80.69
69980;BME280;57318;56.232;43.944;2022-09-30T14:36:46;99630.03;;;12.70;80.82
69980;BME280;57318;56.232;43.944;2022-09-30T14:39:22;99638.28;;;12.67;80.86
69980;BME280;57318;56.232;43.944;2022-09-30T14:41:53;99640.94;;;12.67;80.92
69980;BME280;57318;56.232;43.944;2022-09-30T14:44:23;99642.78;;;12.66;80.89
69980;BME280;57318;56.232;43.944;2022-09-30T14:46:50;99640.94;;;12.67;80.82
69980;BME280;57318;56.232;43.944;2022-09-30T14:49:19;99645.31;;;12.68;80.85
69980;BME280;57318;56.232;43.944;2022-09-30T14:51:48;99637.59;;;12.64;81.00
69980;BME280;57318;56.232;43.944;2022-09-30T14:54:20;99642.22;;;12.62;81.14
69980;BME280;57318;56.232;43.944;2022-09-30T14:56:48;99644.00;;;12.62;81.18
69980;BME280;57318;56.232;43.944;2022-09-30T14:59:22;99646.81;;;12.60;81.11
69980;BME280;57318;56.232;43.944;2022-09-30T15:02:12;99642.47;;;12.59;81.33
69980;BME280;57318;56.232;43.944;2022-09-30T15:04:46;99644.13;;;12.60;81.19
69980;BME280;57318;56.232;43.944;2022-09-30T15:07:13;99644.13;;;12.60;81.12
69980;BME280;57318;56.232;43.944;2022-09-30T15:09:42;99636.16;;;12.60;80.95
69980;BME280;57318;56.232;43.944;2022-09-30T15:12:18;99638.09;;;12.58;81.06
69980;BME280;57318;56.232;43.944;2022-09-30T15:17:23;99640.78;;;12.58;80.89
69980;BME280;57318;56.232;43.944;2022-09-30T15:19:52;99640.50;;;12.61;80.60
69980;BME280;57318;56.232;43.944;2022-09-30T15:22:20;99639.53;;;12.62;80.46
69980;BME280;57318;56.232;43.944;2022-09-30T15:24:48;99643.88;;;12.63;80.15
69980;BME280;57318;56.232;43.944;2022-09-30T15:27:28;99639.28;;;12.66;80.03
69980;BME280;57318;56.232;43.944;2022-09-30T15:29:58;99639.03;;;12.69;79.86
69980;BME280;57318;56.232;43.944;2022-09-30T15:32:27;99645.31;;;12.68;79.80
69980;BME280;57318;56.232;43.944;2022-09-30T15:34:57;99639.84;;;12.69;79.94
69980;BME280;57318;56.232;43.944;2022-09-30T15:37:39;99636.34;;;12.69;79.91
69980;BME280;57318;56.232;43.944;2022-09-30T15:40:22;99639.28;;;12.66;80.07
69980;BME280;57318;56.232;43.944;2022-09-30T15:43:09;99646.53;;;12.63;80.23
69980;BME280;57318;56.232;43.944;2022-09-30T15:45:37;99643.88;;;12.63;79.92
69980;BME280;57318;56.232;43.944;2022-09-30T15:50:46;99638.56;;;12.63;79.94
69980;BME280;57318;56.232;43.944;2022-09-30T15:53:24;99641.22;;;12.63;79.64
69980;BME280;57318;56.232;43.944;2022-09-30T15:55:58;99639.53;;;12.62;79.95
69980;BME280;57318;56.232;43.944;2022-09-30T15:58:39;99633.63;;;12.59;79.93
69980;BME280;57318;56.232;43.944;2022-09-30T16:03:45;99640.78;;;12.58;80.06
69980;BME280;57318;56.232;43.944;2022-09-30T16:06:14;99633.88;;;12.56;80.16
69980;BME280;57318;56.232;43.944;2022-09-30T16:08:43;99632.34;;;12.53;80.23
69980;BME280;57318;56.232;43.944;2022-09-30T16:11:26;99638.88;;;12.49;80.48
69980;BME280;57318;56.232;43.944;2022-09-30T16:13:53;99636.22;;;12.49;80.42
69980;BME280;57318;56.232;43.944;2022-09-30T16:16:23;99636.47;;;12.46;80.58
69980;BME280;57318;56.232;43.944;2022-09-30T16:18:52;99636.47;;;12.46;80.46